sensor_id;sensor_type;location;lat;lon;timestamp;pressure;altitude;pressure_sealevel;temperature;humidity
1480;BME280;732;51.698;4.886;2022-10-31T00:02:11;102137.75;;;14.14;100.00
1480;BME280;732;51.698;4.886;2022-10-31T00:04:39;102125.09;;;14.00;100.00
1480;BME280;732;51.698;4.886;2022-10-31T00:07:09;102069.16;;;13.70;100.00
1480;BME280;732;51.698;4.886;2022-10-31T00:09:38;101862.38;;;12.59;100.00
1480;BME280;732;51.698;4.886;2022-10-31T00:12:07;102192.91;;;14.46;100.00
1480;BME280;732;51.698;4.886;2022-10-31T00:14:35;102161.59;;;14.22;100.00
1480;BME280;732;51.698;4.886;2022-10-31T00:17:04;101985.94;;;13.33;100.00
1480;BME280;732;51.698;4.886;2022-10-31T00:19:32;102203.34;;;14.43;100.00
1480;BME280;732;51.698;4.886;2022-10-31T00:22:01;102187.75;;;14.50;100.00
1480;BME280;732;51.698;4.886;2022-10-31T00:24:31;101998.53;;;13.46;100.00
1480;BME280;732;51.698;4.886;2022-10-31T00:26:59;101967.16;;;13.16;100.00
1480;BME280;732;51.698;4.886;2022-10-31T00:29:28;102015.97;;;13.44;100.00
1480;BME280;732;51.698;4.886;2022-10-31T00:31:59;102001.09;;;13.43;100.00
1480;BME280;732;51.698;4.886;2022-10-31T00:34:30;102210.34;;;14.42;100.00
1480;BME280;732;51.698;4.886;2022-10-31T00:36:59;102052.78;;;13.46;100.00
1480;BME280;732;51.698;4.886;2022-10-31T00:39:28;102119.38;;;13.80;100.00
1480;BME280;732;51.698;4.886;2022-10-31T00:42:00;102094.69;;;13.41;100.00
1480;BME280;732;51.698;4.886;2022-10-31T00:44:29;102193.00;;;14.16;100.00
1480;BME280;732;51.698;4.886;2022-10-31T00:46:58;101872.41;;;12.42;100.00
1480;BME280;732;51.698;4.886;2022-10-31T00:49:27;102046.38;;;13.34;100.00
1480;BME280;732;51.698;4.886;2022-10-31T00:51:55;102013.47;;;13.14;100.00
1480;BME280;732;51.698;4.886;2022-10-31T00:54:24;101935.09;;;12.64;100.00
1480;BME280;732;51.698;4.886;2022-10-31T00:56:53;101960.44;;;12.64;100.00
1480;BME280;732;51.698;4.886;2022-10-31T00:59:24;101958.91;;;12.72;100.00
1480;BME280;732;51.698;4.886;2022-10-31T01:01:52;102168.81;;;13.96;100.00
1480;BME280;732;51.698;4.886;2022-10-31T01:04:21;102167.72;;;13.88;100.00
1480;BME280;732;51.698;4.886;2022-10-31T01:06:50;101809.47;;;11.78;100.00
1480;BME280;732;51.698;4.886;2022-10-31T01:09:19;102101.84;;;13.47;100.00
1480;BME280;732;51.698;4.886;2022-10-31T01:11:48;102105.28;;;13.44;100.00
1480;BME280;732;51.698;4.886;2022-10-31T01:14:16;102062.06;;;13.02;100.00
1480;BME280;732;51.698;4.886;2022-10-31T01:16:46;102177.00;;;13.74;100.00
1480;BME280;732;51.698;4.886;2022-10-31T01:19:15;101964.34;;;12.48;100.00
1480;BME280;732;51.698;4.886;2022-10-31T01:21:44;102141.09;;;13.42;100.00
1480;BME280;732;51.698;4.886;2022-10-31T01:24:12;102169.63;;;13.60;100.00
1480;BME280;732;51.698;4.886;2022-10-31T01:26:41;102134.31;;;13.19;100.00
1480;BME280;732;51.698;4.886;2022-10-31T01:29:10;102043.69;;;12.71;100.00
1480;BME280;732;51.698;4.886;2022-10-31T01:31:40;102178.84;;;13.46;100.00
1480;BME280;732;51.698;4.886;2022-10-31T01:34:14;102014.91;;;12.44;100.00
1480;BME280;732;51.698;4.886;2022-10-31T01:36:44;102051.63;;;12.74;100.00
1480;BME280;732;51.698;4.886;2022-10-31T01:39:15;102159.78;;;13.21;100.00
1480;BME280;732;51.698;4.886;2022-10-31T01:41:47;102181.06;;;13.32;100.00
1480;BME280;732;51.698;4.886;2022-10-31T01:44:59;102123.38;;;13.04;100.00
1480;BME280;732;51.698;4.886;2022-10-31T01:47:38;102171.94;;;13.18;100.00
1480;BME280;732;51.698;4.886;2022-10-31T01:50:20;101928.53;;;11.89;100.00
1480;BME280;732;51.698;4.886;2022-10-31T01:52:51;102160.41;;;13.13;100.00
1480;BME280;732;51.698;4.886;2022-10-31T01:55:24;102148.75;;;13.03;100.00
1480;BME280;732;51.698;4.886;2022-10-31T01:58:00;102155.03;;;13.08;100.00
1480;BME280;732;51.698;4.886;2022-10-31T02:00:30;102145.31;;;13.06;100.00
1480;BME280;732;51.698;4.886;2022-10-31T02:02:59;102111.44;;;12.85;100.00
1480;BME280;732;51.698;4.886;2022-10-31T02:05:30;102032.78;;;12.27;100.00
1480;BME280;732;51.698;4.886;2022-10-31T02:08:06;102120.75;;;12.76;100.00
1480;BME280;732;51.698;4.886;2022-10-31T02:10:37;101893.53;;;11.59;100.00
1480;BME280;732;51.698;4.886;2022-10-31T02:13:08;102040.09;;;12.37;100.00
1480;BME280;732;51.698;4.886;2022-10-31T02:15:45;101893.94;;;11.44;100.00
1480;BME280;732;51.698;4.886;2022-10-31T02:18:15;102169.88;;;13.08;100.00
1480;BME280;732;51.698;4.886;2022-10-31T02:20:57;102161.63;;;12.96;100.00
1480;BME280;732;51.698;4.886;2022-10-31T02:24:17;102166.22;;;13.03;100.00
1480;BME280;732;51.698;4.886;2022-10-31T02:27:04;101898.94;;;11.37;100.00
1480;BME280;732;51.698;4.886;2022-10-31T02:30:07;102079.75;;;12.49;100.00
1480;BME280;732;51.698;4.886;2022-10-31T02:33:01;102164.31;;;12.99;100.00
1480;BME280;732;51.698;4.886;2022-10-31T02:35:47;102008.50;;;12.05;100.00
1480;BME280;732;51.698;4.886;2022-10-31T02:38:33;101965.97;;;11.85;100.00
1480;BME280;732;51.698;4.886;2022-10-31T02:41:13;102071.81;;;12.46;100.00
1480;BME280;732;51.698;4.886;2022-10-31T02:44:00;101957.06;;;11.53;100.00
1480;BME280;732;51.698;4.886;2022-10-31T02:46:38;102138.34;;;12.78;100.00
1480;BME280;732;51.698;4.886;2022-10-31T02:49:18;101907.97;;;11.46;100.00
1480;BME280;732;51.698;4.886;2022-10-31T02:51:49;102160.34;;;12.83;100.00
1480;BME280;732;51.698;4.886;2022-10-31T02:54:23;102140.66;;;12.68;100.00
1480;BME280;732;51.698;4.886;2022-10-31T02:56:58;102163.78;;;12.81;100.00
1480;BME280;732;51.698;4.886;2022-10-31T02:59:29;102044.22;;;12.03;100.00
1480;BME280;732;51.698;4.886;2022-10-31T03:02:21;102155.66;;;12.72;100.00
1480;BME280;732;51.698;4.886;2022-10-31T03:05:22;102128.88;;;12.55;100.00
1480;BME280;732;51.698;4.886;2022-10-31T03:08:01;102056.06;;;12.17;100.00
1480;BME280;732;51.698;4.886;2022-10-31T03:10:38;102093.47;;;12.39;100.00
1480;BME280;732;51.698;4.886;2022-10-31T03:13:13;101818.94;;;10.90;100.00
1480;BME280;732;51.698;4.886;2022-10-31T03:15:51;102143.03;;;12.60;100.00
1480;BME280;732;51.698;4.886;2022-10-31T03:18:28;102005.94;;;11.80;100.00
1480;BME280;732;51.698;4.886;2022-10-31T03:21:04;102072.94;;;12.26;100.00
1480;BME280;732;51.698;4.886;2022-10-31T03:23:36;102063.22;;;12.22;100.00
1480;BME280;732;51.698;4.886;2022-10-31T03:26:07;102048.06;;;12.14;100.00
1480;BME280;732;51.698;4.886;2022-10-31T03:28:43;102088.81;;;12.31;100.00
1480;BME280;732;51.698;4.886;2022-10-31T03:31:17;101979.75;;;11.53;100.00
1480;BME280;732;51.698;4.886;2022-10-31T03:33:48;102091.84;;;12.16;100.00
1480;BME280;732;51.698;4.886;2022-10-31T03:36:20;101994.84;;;11.62;100.00
1480;BME280;732;51.698;4.886;2022-10-31T03:38:49;102177.97;;;12.59;100.00
1480;BME280;732;51.698;4.886;2022-10-31T03:41:23;102162.88;;;12.52;100.00
1480;BME280;732;51.698;4.886;2022-10-31T03:43:57;102151.97;;;12.38;100.00
1480;BME280;732;51.698;4.886;2022-10-31T03:46:28;101981.81;;;11.36;100.00
1480;BME280;732;51.698;4.886;2022-10-31T03:48:58;102133.47;;;12.34;100.00
1480;BME280;732;51.698;4.886;2022-10-31T03:51:36;101902.53;;;10.87;100.00
1480;BME280;732;51.698;4.886;2022-10-31T03:54:13;101835.16;;;10.53;100.00
1480;BME280;732;51.698;4.886;2022-10-31T03:56:48;102113.81;;;12.21;100.00
1480;BME280;732;51.698;4.886;2022-10-31T03:59:21;102082.31;;;11.92;100.00
1480;BME280;732;51.698;4.886;2022-10-31T04:01:56;102175.97;;;12.51;100.00
1480;BME280;732;51.698;4.886;2022-10-31T04:04:27;101995.94;;;11.41;100.00
1480;BME280;732;51.698;4.886;2022-10-31T04:07:00;102111.63;;;12.07;100.00
1480;BME280;732;51.698;4.886;2022-10-31T04:09:33;102108.06;;;12.05;100.00
1480;BME280;732;51.698;4.886;2022-10-31T04:12:05;102139.22;;;12.22;100.00
1480;BME280;732;51.698;4.886;2022-10-31T04:15:04;101983.03;;;11.21;100.00
1480;BME280;732;51.698;4.886;2022-10-31T04:17:38;102115.88;;;12.03;100.00
1480;BME280;732;51.698;4.886;2022-10-31T04:20:10;102123.13;;;12.12;100.00
1480;BME280;732;51.698;4.886;2022-10-31T04:22:40;102118.50;;;12.03;100.00
1480;BME280;732;51.698;4.886;2022-10-31T04:25:11;102116.78;;;12.04;100.00
1480;BME280;732;51.698;4.886;2022-10-31T04:27:39;101961.00;;;11.14;100.00
1480;BME280;732;51.698;4.886;2022-10-31T04:30:10;102120.78;;;11.93;100.00
1480;BME280;732;51.698;4.886;2022-10-31T04:32:40;102153.97;;;12.19;100.00
1480;BME280;732;51.698;4.886;2022-10-31T04:35:08;102042.66;;;11.56;100.00
1480;BME280;732;51.698;4.886;2022-10-31T04:37:37;101981.22;;;11.20;100.00
1480;BME280;732;51.698;4.886;2022-10-31T04:40:09;102033.66;;;11.48;100.00
1480;BME280;732;51.698;4.886;2022-10-31T04:43:10;102157.56;;;12.22;100.00
1480;BME280;732;51.698;4.886;2022-10-31T04:45:39;102142.91;;;12.02;100.00
1480;BME280;732;51.698;4.886;2022-10-31T04:48:08;102041.38;;;11.43;100.00
1480;BME280;732;51.698;4.886;2022-10-31T04:50:39;102166.13;;;12.17;100.00
1480;BME280;732;51.698;4.886;2022-10-31T04:53:08;101991.88;;;11.24;100.00
1480;BME280;732;51.698;4.886;2022-10-31T04:55:54;102090.56;;;11.77;100.00
1480;BME280;732;51.698;4.886;2022-10-31T04:58:24;101952.75;;;11.02;100.00
1480;BME280;732;51.698;4.886;2022-10-31T05:00:53;102129.47;;;11.92;100.00
1480;BME280;732;51.698;4.886;2022-10-31T05:03:22;102120.16;;;12.01;100.00
1480;BME280;732;51.698;4.886;2022-10-31T05:05:51;102079.91;;;11.73;100.00
1480;BME280;732;51.698;4.886;2022-10-31T05:08:20;102067.25;;;11.61;100.00
1480;BME280;732;51.698;4.886;2022-10-31T05:10:52;101856.78;;;10.49;100.00
1480;BME280;732;51.698;4.886;2022-10-31T05:13:21;102012.16;;;11.31;100.00
1480;BME280;732;51.698;4.886;2022-10-31T05:16:08;102069.31;;;11.68;100.00
1480;BME280;732;51.698;4.886;2022-10-31T05:18:39;102139.50;;;12.05;100.00
1480;BME280;732;51.698;4.886;2022-10-31T05:21:26;102031.16;;;11.51;100.00
1480;BME280;732;51.698;4.886;2022-10-31T05:23:59;102034.78;;;11.54;100.00
1480;BME280;732;51.698;4.886;2022-10-31T05:26:30;101807.56;;;10.36;100.00
1480;BME280;732;51.698;4.886;2022-10-31T05:28:59;102127.75;;;12.19;100.00
1480;BME280;732;51.698;4.886;2022-10-31T05:31:28;101919.44;;;10.97;100.00
1480;BME280;732;51.698;4.886;2022-10-31T05:33:57;101821.44;;;10.35;100.00
1480;BME280;732;51.698;4.886;2022-10-31T05:36:44;102033.31;;;11.63;100.00
1480;BME280;732;51.698;4.886;2022-10-31T05:39:17;102066.97;;;11.77;100.00
1480;BME280;732;51.698;4.886;2022-10-31T05:41:50;102083.25;;;11.94;100.00
1480;BME280;732;51.698;4.886;2022-10-31T05:44:21;102092.03;;;11.96;100.00
1480;BME280;732;51.698;4.886;2022-10-31T05:47:22;102111.53;;;12.04;100.00
1480;BME280;732;51.698;4.886;2022-10-31T05:50:10;102100.88;;;11.99;100.00
1480;BME280;732;51.698;4.886;2022-10-31T05:52:56;102100.63;;;11.92;100.00
1480;BME280;732;51.698;4.886;2022-10-31T05:55:32;102134.16;;;12.02;100.00
1480;BME280;732;51.698;4.886;2022-10-31T05:58:10;102056.75;;;11.60;100.00
1480;BME280;732;51.698;4.886;2022-10-31T06:00:44;101918.63;;;10.74;100.00
1480;BME280;732;51.698;4.886;2022-10-31T06:03:15;102000.66;;;11.26;100.00
1480;BME280;732;51.698;4.886;2022-10-31T06:05:49;101795.31;;;10.10;100.00
1480;BME280;732;51.698;4.886;2022-10-31T06:08:24;102059.16;;;11.53;100.00
1480;BME280;732;51.698;4.886;2022-10-31T06:10:54;102081.38;;;11.65;100.00
1480;BME280;732;51.698;4.886;2022-10-31T06:13:44;102132.84;;;11.89;100.00
1480;BME280;732;51.698;4.886;2022-10-31T06:16:22;101906.31;;;10.46;100.00
1480;BME280;732;51.698;4.886;2022-10-31T06:18:52;101924.28;;;10.61;100.00
1480;BME280;732;51.698;4.886;2022-10-31T06:21:21;102089.84;;;11.57;100.00
1480;BME280;732;51.698;4.886;2022-10-31T06:23:51;101920.00;;;10.63;100.00
1480;BME280;732;51.698;4.886;2022-10-31T06:26:38;101975.06;;;10.93;100.00
1480;BME280;732;51.698;4.886;2022-10-31T06:29:08;102018.25;;;11.30;100.00
1480;BME280;732;51.698;4.886;2022-10-31T06:31:55;102114.09;;;11.76;100.00
1480;BME280;732;51.698;4.886;2022-10-31T06:34:24;102074.00;;;11.53;100.00
1480;BME280;732;51.698;4.886;2022-10-31T06:36:52;102118.72;;;11.84;100.00
1480;BME280;732;51.698;4.886;2022-10-31T06:39:24;101791.72;;;10.08;100.00
1480;BME280;732;51.698;4.886;2022-10-31T06:41:53;101910.66;;;10.71;100.00
1480;BME280;732;51.698;4.886;2022-10-31T06:44:28;102091.28;;;11.73;100.00
1480;BME280;732;51.698;4.886;2022-10-31T06:46:59;102074.53;;;11.68;100.00
1480;BME280;732;51.698;4.886;2022-10-31T06:50:08;102123.66;;;12.00;100.00
1480;BME280;732;51.698;4.886;2022-10-31T06:52:37;102059.38;;;11.60;100.00
1480;BME280;732;51.698;4.886;2022-10-31T06:55:07;102058.75;;;11.67;100.00
1480;BME280;732;51.698;4.886;2022-10-31T06:57:35;101885.13;;;10.63;100.00
1480;BME280;732;51.698;4.886;2022-10-31T07:00:08;102073.16;;;11.79;100.00
1480;BME280;732;51.698;4.886;2022-10-31T07:02:55;101983.97;;;11.23;100.00
1480;BME280;732;51.698;4.886;2022-10-31T07:05:25;102111.16;;;11.93;100.00
1480;BME280;732;51.698;4.886;2022-10-31T07:07:54;101875.56;;;10.63;100.00
1480;BME280;732;51.698;4.886;2022-10-31T07:10:31;102117.31;;;11.94;100.00
1480;BME280;732;51.698;4.886;2022-10-31T07:13:11;101837.91;;;10.33;100.00
1480;BME280;732;51.698;4.886;2022-10-31T07:15:47;102152.31;;;12.22;100.00
1480;BME280;732;51.698;4.886;2022-10-31T07:18:16;101874.78;;;10.67;100.00
1480;BME280;732;51.698;4.886;2022-10-31T07:20:47;102067.38;;;11.89;100.00
1480;BME280;732;51.698;4.886;2022-10-31T07:23:17;102104.84;;;12.13;100.00
1480;BME280;732;51.698;4.886;2022-10-31T07:25:57;101844.44;;;10.45;100.00
1480;BME280;732;51.698;4.886;2022-10-31T07:28:39;102123.25;;;12.15;100.00
1480;BME280;732;51.698;4.886;2022-10-31T07:31:09;101950.97;;;11.28;100.00
1480;BME280;732;51.698;4.886;2022-10-31T07:33:44;102018.69;;;11.69;100.00
1480;BME280;732;51.698;4.886;2022-10-31T07:36:28;101988.91;;;11.66;100.00
1480;BME280;732;51.698;4.886;2022-10-31T07:39:01;101929.34;;;11.33;100.00
1480;BME280;732;51.698;4.886;2022-10-31T07:41:33;102055.91;;;12.12;100.00
1480;BME280;732;51.698;4.886;2022-10-31T07:44:02;101984.91;;;11.77;100.00
1480;BME280;732;51.698;4.886;2022-10-31T07:46:55;101969.63;;;11.90;100.00
1480;BME280;732;51.698;4.886;2022-10-31T07:49:43;102146.34;;;13.11;100.00
1480;BME280;732;51.698;4.886;2022-10-31T07:52:59;102125.47;;;13.15;100.00
1480;BME280;732;51.698;4.886;2022-10-31T07:55:46;102155.31;;;13.49;100.00
1480;BME280;732;51.698;4.886;2022-10-31T07:58:16;101960.09;;;12.52;100.00
1480;BME280;732;51.698;4.886;2022-10-31T08:00:47;101981.41;;;12.64;100.00
1480;BME280;732;51.698;4.886;2022-10-31T08:03:28;102151.19;;;13.92;100.00
1480;BME280;732;51.698;4.886;2022-10-31T08:06:09;102161.13;;;14.04;100.00
1480;BME280;732;51.698;4.886;2022-10-31T08:09:01;102110.56;;;13.78;100.00
1480;BME280;732;51.698;4.886;2022-10-31T08:11:31;102090.28;;;13.73;100.00
1480;BME280;732;51.698;4.886;2022-10-31T08:14:00;102104.72;;;13.90;100.00
1480;BME280;732;51.698;4.886;2022-10-31T08:16:30;101978.88;;;13.30;100.00
1480;BME280;732;51.698;4.886;2022-10-31T08:19:02;101974.66;;;13.37;100.00
1480;BME280;732;51.698;4.886;2022-10-31T08:21:36;102040.81;;;13.92;100.00
1480;BME280;732;51.698;4.886;2022-10-31T08:24:08;101939.94;;;13.49;100.00
1480;BME280;732;51.698;4.886;2022-10-31T08:26:37;102033.84;;;14.30;100.00
1480;BME280;732;51.698;4.886;2022-10-31T08:29:08;102141.44;;;14.97;100.00
1480;BME280;732;51.698;4.886;2022-10-31T08:31:38;101849.63;;;13.42;100.00
1480;BME280;732;51.698;4.886;2022-10-31T08:34:29;101977.47;;;14.19;100.00
1480;BME280;732;51.698;4.886;2022-10-31T08:37:30;102033.56;;;14.58;100.00
1480;BME280;732;51.698;4.886;2022-10-31T08:39:58;102091.66;;;15.09;100.00
1480;BME280;732;51.698;4.886;2022-10-31T08:42:33;102136.25;;;15.43;100.00
1480;BME280;732;51.698;4.886;2022-10-31T08:45:03;102049.38;;;15.03;100.00
1480;BME280;732;51.698;4.886;2022-10-31T08:47:33;102032.00;;;15.11;100.00
1480;BME280;732;51.698;4.886;2022-10-31T08:50:04;102098.63;;;15.50;100.00
1480;BME280;732;51.698;4.886;2022-10-31T08:52:34;102066.97;;;15.49;100.00
1480;BME280;732;51.698;4.886;2022-10-31T08:55:23;101859.66;;;14.43;100.00
1480;BME280;732;51.698;4.886;2022-10-31T08:58:00;101933.50;;;14.98;100.00
1480;BME280;732;51.698;4.886;2022-10-31T09:00:38;102002.94;;;15.53;100.00
1480;BME280;732;51.698;4.886;2022-10-31T09:03:22;102018.34;;;15.81;100.00
1480;BME280;732;51.698;4.886;2022-10-31T09:05:57;102115.38;;;16.58;100.00
1480;BME280;732;51.698;4.886;2022-10-31T09:08:32;101963.00;;;15.84;100.00
1480;BME280;732;51.698;4.886;2022-10-31T09:11:03;102017.28;;;16.30;100.00
1480;BME280;732;51.698;4.886;2022-10-31T09:13:52;102070.69;;;16.72;100.00
1480;BME280;732;51.698;4.886;2022-10-31T09:16:55;102049.66;;;16.79;100.00
1480;BME280;732;51.698;4.886;2022-10-31T09:19:31;101925.97;;;16.39;100.00
1480;BME280;732;51.698;4.886;2022-10-31T09:22:01;101907.69;;;16.53;100.00
1480;BME280;732;51.698;4.886;2022-10-31T09:24:30;101999.09;;;17.24;100.00
1480;BME280;732;51.698;4.886;2022-10-31T09:26:59;102069.22;;;17.79;100.00
1480;BME280;732;51.698;4.886;2022-10-31T09:29:28;101957.78;;;17.38;100.00
1480;BME280;732;51.698;4.886;2022-10-31T09:31:59;102032.41;;;18.09;100.00
1480;BME280;732;51.698;4.886;2022-10-31T09:34:29;102027.22;;;18.27;100.00
1480;BME280;732;51.698;4.886;2022-10-31T09:37:06;102005.16;;;18.25;100.00
1480;BME280;732;51.698;4.886;2022-10-31T09:39:35;101897.34;;;17.79;100.00
1480;BME280;732;51.698;4.886;2022-10-31T09:42:35;101936.31;;;18.16;100.00
1480;BME280;732;51.698;4.886;2022-10-31T09:45:21;101833.88;;;17.79;100.00
1480;BME280;732;51.698;4.886;2022-10-31T09:48:09;101979.84;;;18.78;100.00
1480;BME280;732;51.698;4.886;2022-10-31T09:51:09;101995.81;;;19.10;100.00
1480;BME280;732;51.698;4.886;2022-10-31T09:54:08;102034.75;;;19.49;100.00
1480;BME280;732;51.698;4.886;2022-10-31T09:56:39;101874.75;;;18.68;100.00
1480;BME280;732;51.698;4.886;2022-10-31T09:59:30;101940.13;;;19.05;100.00
1480;BME280;732;51.698;4.886;2022-10-31T10:02:02;101981.72;;;19.47;100.00
1480;BME280;732;51.698;4.886;2022-10-31T10:04:40;101956.97;;;19.53;100.00
1480;BME280;732;51.698;4.886;2022-10-31T10:07:30;101999.38;;;19.89;100.00
1480;BME280;732;51.698;4.886;2022-10-31T10:10:27;102000.22;;;20.03;100.00
1480;BME280;732;51.698;4.886;2022-10-31T10:13:47;101918.06;;;19.64;100.00
1480;BME280;732;51.698;4.886;2022-10-31T10:16:33;101908.31;;;19.72;100.00
1480;BME280;732;51.698;4.886;2022-10-31T10:19:24;101827.06;;;19.27;100.00
1480;BME280;732;51.698;4.886;2022-10-31T10:22:02;101971.00;;;20.11;100.00
1480;BME280;732;51.698;4.886;2022-10-31T10:24:50;101736.13;;;18.80;100.00
1480;BME280;732;51.698;4.886;2022-10-31T10:27:38;101976.31;;;20.27;100.00
1480;BME280;732;51.698;4.886;2022-10-31T10:30:16;101791.72;;;19.19;100.00
1480;BME280;732;51.698;4.886;2022-10-31T10:32:50;101722.00;;;18.84;100.00
1480;BME280;732;51.698;4.886;2022-10-31T10:35:25;101799.66;;;19.27;100.00
1480;BME280;732;51.698;4.886;2022-10-31T10:38:00;101924.19;;;19.84;100.00
1480;BME280;732;51.698;4.886;2022-10-31T10:40:30;101963.06;;;20.14;100.00
1480;BME280;732;51.698;4.886;2022-10-31T10:43:18;101893.25;;;19.77;100.00
1480;BME280;732;51.698;4.886;2022-10-31T10:45:59;101986.91;;;20.32;100.00
1480;BME280;732;51.698;4.886;2022-10-31T10:48:55;101858.88;;;19.42;100.00
1480;BME280;732;51.698;4.886;2022-10-31T10:51:33;101886.25;;;19.61;100.00
1480;BME280;732;51.698;4.886;2022-10-31T10:54:54;101907.41;;;19.77;100.00
1480;BME280;732;51.698;4.886;2022-10-31T10:57:51;101874.75;;;19.65;100.00
1480;BME280;732;51.698;4.886;2022-10-31T11:00:25;101801.41;;;19.28;100.00
1480;BME280;732;51.698;4.886;2022-10-31T11:02:56;101933.88;;;20.03;100.00
1480;BME280;732;51.698;4.886;2022-10-31T11:05:33;101892.38;;;19.82;100.00
1480;BME280;732;51.698;4.886;2022-10-31T11:08:04;101952.47;;;20.06;100.00
1480;BME280;732;51.698;4.886;2022-10-31T11:10:34;101910.97;;;19.72;100.00
1480;BME280;732;51.698;4.886;2022-10-31T11:13:19;101863.25;;;19.46;100.00
1480;BME280;732;51.698;4.886;2022-10-31T11:15:58;101880.94;;;19.43;100.00
1480;BME280;732;51.698;4.886;2022-10-31T11:18:30;101898.59;;;19.74;100.00
1480;BME280;732;51.698;4.886;2022-10-31T11:21:03;101867.66;;;19.62;100.00
1480;BME280;732;51.698;4.886;2022-10-31T11:23:33;101807.59;;;19.39;100.00
1480;BME280;732;51.698;4.886;2022-10-31T11:26:04;101665.53;;;18.59;100.00
1480;BME280;732;51.698;4.886;2022-10-31T11:28:34;101734.34;;;19.00;100.00
1480;BME280;732;51.698;4.886;2022-10-31T11:31:11;101670.84;;;18.53;100.00
1480;BME280;732;51.698;4.886;2022-10-31T11:33:48;101887.03;;;19.88;100.00
1480;BME280;732;51.698;4.886;2022-10-31T11:36:23;101872.88;;;19.88;100.00
1480;BME280;732;51.698;4.886;2022-10-31T11:38:53;101802.22;;;19.61;100.00
1480;BME280;732;51.698;4.886;2022-10-31T11:41:29;101761.59;;;19.61;100.00
1480;BME280;732;51.698;4.886;2022-10-31T11:44:02;101531.44;;;18.46;100.00
1480;BME280;732;51.698;4.886;2022-10-31T11:46:35;101857.63;;;20.38;100.00
1480;BME280;732;51.698;4.886;2022-10-31T11:49:17;101644.13;;;19.38;100.00
1480;BME280;732;51.698;4.886;2022-10-31T11:51:50;101691.63;;;19.78;100.00
1480;BME280;732;51.698;4.886;2022-10-31T11:54:24;101769.25;;;20.21;100.00
1480;BME280;732;51.698;4.886;2022-10-31T11:56:53;101827.16;;;20.92;100.00
1480;BME280;732;51.698;4.886;2022-10-31T11:59:26;101812.00;;;21.08;100.00
1480;BME280;732;51.698;4.886;2022-10-31T12:01:59;101670.94;;;20.32;100.00
1480;BME280;732;51.698;4.886;2022-10-31T12:04:46;101787.91;;;21.21;100.00
1480;BME280;732;51.698;4.886;2022-10-31T12:07:16;101715.44;;;21.03;100.00
1480;BME280;732;51.698;4.886;2022-10-31T12:09:44;101762.00;;;21.41;100.00
1480;BME280;732;51.698;4.886;2022-10-31T12:12:34;101654.50;;;20.83;100.00
1480;BME280;732;51.698;4.886;2022-10-31T12:15:31;101742.78;;;21.14;100.00
1480;BME280;732;51.698;4.886;2022-10-31T12:21:36;101756.84;;;21.26;100.00
1480;BME280;732;51.698;4.886;2022-10-31T12:24:20;101673.22;;;20.71;100.00
1480;BME280;732;51.698;4.886;2022-10-31T12:27:03;101591.22;;;20.35;100.00
1480;BME280;732;51.698;4.886;2022-10-31T12:30:00;101694.31;;;20.87;100.00
1480;BME280;732;51.698;4.886;2022-10-31T12:32:41;101715.44;;;21.03;100.00
1480;BME280;732;51.698;4.886;2022-10-31T12:35:31;101569.31;;;20.10;100.00
1480;BME280;732;51.698;4.886;2022-10-31T12:38:29;101647.72;;;20.55;100.00
1480;BME280;732;51.698;4.886;2022-10-31T12:41:30;101705.69;;;20.99;100.00
1480;BME280;732;51.698;4.886;2022-10-31T12:44:06;101437.31;;;19.42;100.00
1480;BME280;732;51.698;4.886;2022-10-31T12:47:02;101581.47;;;20.38;100.00
1480;BME280;732;51.698;4.886;2022-10-31T12:49:44;101650.97;;;20.81;100.00
1480;BME280;732;51.698;4.886;2022-10-31T12:52:37;101647.31;;;20.91;100.00
1480;BME280;732;51.698;4.886;2022-10-31T12:55:27;101544.53;;;20.11;100.00
1480;BME280;732;51.698;4.886;2022-10-31T12:58:03;101503.91;;;20.03;100.00
1480;BME280;732;51.698;4.886;2022-10-31T13:00:35;101596.38;;;20.50;100.00
1480;BME280;732;51.698;4.886;2022-10-31T13:03:24;101604.09;;;20.74;100.00
1480;BME280;732;51.698;4.886;2022-10-31T13:06:07;101605.69;;;20.90;100.00
1480;BME280;732;51.698;4.886;2022-10-31T13:08:42;101610.97;;;20.95;100.00
1480;BME280;732;51.698;4.886;2022-10-31T13:11:21;101611.81;;;20.97;100.00
1480;BME280;732;51.698;4.886;2022-10-31T13:13:59;101618.75;;;21.13;100.00
1480;BME280;732;51.698;4.886;2022-10-31T13:16:38;101477.03;;;20.38;100.00
1480;BME280;732;51.698;4.886;2022-10-31T13:19:17;101552.44;;;21.01;100.00
1480;BME280;732;51.698;4.886;2022-10-31T13:21:58;101565.63;;;21.08;100.00
1480;BME280;732;51.698;4.886;2022-10-31T13:24:35;101421.31;;;20.35;100.00
1480;BME280;732;51.698;4.886;2022-10-31T13:27:17;101502.78;;;21.03;100.00
1480;BME280;732;51.698;4.886;2022-10-31T13:29:58;101567.78;;;21.43;100.00
1480;BME280;732;51.698;4.886;2022-10-31T13:32:37;101473.69;;;20.90;100.00
1480;BME280;732;51.698;4.886;2022-10-31T13:35:18;101526.38;;;21.25;100.00
1480;BME280;732;51.698;4.886;2022-10-31T13:37:58;101505.19;;;21.19;100.00
1480;BME280;732;51.698;4.886;2022-10-31T13:40:42;101538.53;;;21.43;100.00
1480;BME280;732;51.698;4.886;2022-10-31T13:43:23;101558.63;;;21.63;100.00
1480;BME280;732;51.698;4.886;2022-10-31T13:45:55;101490.13;;;21.20;100.00
1480;BME280;732;51.698;4.886;2022-10-31T13:48:38;101550.75;;;21.56;100.00
1480;BME280;732;51.698;4.886;2022-10-31T13:51:10;101413.66;;;20.76;100.00
1480;BME280;732;51.698;4.886;2022-10-31T13:53:44;101393.69;;;20.49;100.00
1480;BME280;732;51.698;4.886;2022-10-31T13:56:19;101403.19;;;20.65;100.00
1480;BME280;732;51.698;4.886;2022-10-31T13:59:15;101545.50;;;21.50;100.00
1480;BME280;732;51.698;4.886;2022-10-31T14:01:50;101247.75;;;19.78;100.00
1480;BME280;732;51.698;4.886;2022-10-31T14:04:23;101454.91;;;21.04;100.00
1480;BME280;732;51.698;4.886;2022-10-31T14:07:05;101419.72;;;20.85;100.00